sensor_id;sensor_type;location;lat;lon;timestamp;temperature;humidity
21037;DHT22;10677;50.942;4.028;2022-10-15T00:01:26;15.80;99.90
21037;DHT22;10677;50.942;4.028;2022-10-15T00:03:52;15.80;99.90
21037;DHT22;10677;50.942;4.028;2022-10-15T00:06:19;15.80;99.90
21037;DHT22;10677;50.942;4.028;2022-10-15T00:08:46;15.80;99.90
21037;DHT22;10677;50.942;4.028;2022-10-15T00:11:14;15.80;99.90
21037;DHT22;10677;50.942;4.028;2022-10-15T00:13:40;15.80;99.90
21037;DHT22;10677;50.942;4.028;2022-10-15T00:16:18;15.80;99.90
21037;DHT22;10677;50.942;4.028;2022-10-15T00:18:44;15.80;99.90
21037;DHT22;10677;50.942;4.028;2022-10-15T00:21:12;15.80;99.90
21037;DHT22;10677;50.942;4.028;2022-10-15T00:23:39;15.80;99.90
21037;DHT22;10677;50.942;4.028;2022-10-15T00:26:08;15.80;99.90
21037;DHT22;10677;50.942;4.028;2022-10-15T00:28:35;15.80;99.90
21037;DHT22;10677;50.942;4.028;2022-10-15T00:31:09;15.80;99.90
21037;DHT22;10677;50.942;4.028;2022-10-15T00:33:35;15.90;99.90
21037;DHT22;10677;50.942;4.028;2022-10-15T00:36:09;15.80;99.90
21037;DHT22;10677;50.942;4.028;2022-10-15T00:38:35;15.80;99.90
21037;DHT22;10677;50.942;4.028;2022-10-15T00:41:02;15.80;99.90
21037;DHT22;10677;50.942;4.028;2022-10-15T00:43:36;15.80;99.90
21037;DHT22;10677;50.942;4.028;2022-10-15T00:46:02;15.80;99.90
21037;DHT22;10677;50.942;4.028;2022-10-15T00:48:29;15.80;99.90
21037;DHT22;10677;50.942;4.028;2022-10-15T00:50:55;15.90;99.90
21037;DHT22;10677;50.942;4.028;2022-10-15T00:53:21;15.90;99.90
21037;DHT22;10677;50.942;4.028;2022-10-15T00:55:47;15.90;99.90
21037;DHT22;10677;50.942;4.028;2022-10-15T00:58:17;15.90;99.90
21037;DHT22;10677;50.942;4.028;2022-10-15T01:00:46;15.90;99.90
21037;DHT22;10677;50.942;4.028;2022-10-15T01:03:12;15.90;99.90
21037;DHT22;10677;50.942;4.028;2022-10-15T01:05:39;15.90;99.90
21037;DHT22;10677;50.942;4.028;2022-10-15T01:08:05;15.90;99.90
21037;DHT22;10677;50.942;4.028;2022-10-15T01:13:57;15.80;99.90
21037;DHT22;10677;50.942;4.028;2022-10-15T01:16:38;15.70;99.90
21037;DHT22;10677;50.942;4.028;2022-10-15T01:19:43;15.60;99.90
21037;DHT22;10677;50.942;4.028;2022-10-15T01:23:13;15.50;99.90
21037;DHT22;10677;50.942;4.028;2022-10-15T01:30:39;15.50;99.90
21037;DHT22;10677;50.942;4.028;2022-10-15T01:33:24;15.50;99.90
21037;DHT22;10677;50.942;4.028;2022-10-15T01:36:08;15.40;99.90
21037;DHT22;10677;50.942;4.028;2022-10-15T01:38:55;15.50;99.90
21037;DHT22;10677;50.942;4.028;2022-10-15T01:41:39;15.30;99.90
21037;DHT22;10677;50.942;4.028;2022-10-15T01:44:11;15.20;99.90
21037;DHT22;10677;50.942;4.028;2022-10-15T01:46:47;15.10;99.90
21037;DHT22;10677;50.942;4.028;2022-10-15T01:49:15;14.90;99.90
21037;DHT22;10677;50.942;4.028;2022-10-15T01:51:46;14.90;99.90
21037;DHT22;10677;50.942;4.028;2022-10-15T01:54:15;14.80;99.90
21037;DHT22;10677;50.942;4.028;2022-10-15T01:56:44;14.80;99.90
21037;DHT22;10677;50.942;4.028;2022-10-15T01:59:15;14.70;99.90
21037;DHT22;10677;50.942;4.028;2022-10-15T02:01:42;14.70;99.90
21037;DHT22;10677;50.942;4.028;2022-10-15T02:04:35;14.60;99.90
21037;DHT22;10677;50.942;4.028;2022-10-15T02:09:49;14.50;99.90
21037;DHT22;10677;50.942;4.028;2022-10-15T02:17:57;14.60;99.90
21037;DHT22;10677;50.942;4.028;2022-10-15T02:20:54;14.70;99.90
21037;DHT22;10677;50.942;4.028;2022-10-15T02:23:27;14.60;99.90
21037;DHT22;10677;50.942;4.028;2022-10-15T02:25:57;14.70;99.90
21037;DHT22;10677;50.942;4.028;2022-10-15T02:28:25;14.70;99.90
21037;DHT22;10677;50.942;4.028;2022-10-15T02:30:52;14.70;99.90
21037;DHT22;10677;50.942;4.028;2022-10-15T02:33:22;14.80;99.90
21037;DHT22;10677;50.942;4.028;2022-10-15T02:35:50;14.80;99.90
21037;DHT22;10677;50.942;4.028;2022-10-15T02:38:18;14.80;99.90
21037;DHT22;10677;50.942;4.028;2022-10-15T02:40:46;14.80;99.90
21037;DHT22;10677;50.942;4.028;2022-10-15T02:43:14;14.80;99.90
21037;DHT22;10677;50.942;4.028;2022-10-15T02:45:40;14.80;99.90
21037;DHT22;10677;50.942;4.028;2022-10-15T02:48:06;14.80;99.90
21037;DHT22;10677;50.942;4.028;2022-10-15T02:50:33;14.80;99.90
21037;DHT22;10677;50.942;4.028;2022-10-15T02:52:58;14.80;99.90
21037;DHT22;10677;50.942;4.028;2022-10-15T02:55:25;14.80;99.90
21037;DHT22;10677;50.942;4.028;2022-10-15T02:57:50;14.80;99.90
21037;DHT22;10677;50.942;4.028;2022-10-15T03:00:16;14.80;99.90
21037;DHT22;10677;50.942;4.028;2022-10-15T03:02:43;14.90;99.90
21037;DHT22;10677;50.942;4.028;2022-10-15T03:05:09;14.90;99.90
21037;DHT22;10677;50.942;4.028;2022-10-15T03:07:35;14.90;99.90
21037;DHT22;10677;50.942;4.028;2022-10-15T03:10:00;15.00;99.90
21037;DHT22;10677;50.942;4.028;2022-10-15T03:12:26;15.10;99.90
21037;DHT22;10677;50.942;4.028;2022-10-15T03:14:52;15.10;99.90
21037;DHT22;10677;50.942;4.028;2022-10-15T03:17:18;15.10;99.90
21037;DHT22;10677;50.942;4.028;2022-10-15T03:19:44;15.10;99.90
21037;DHT22;10677;50.942;4.028;2022-10-15T03:22:10;15.10;99.90
21037;DHT22;10677;50.942;4.028;2022-10-15T03:24:35;15.10;99.90
21037;DHT22;10677;50.942;4.028;2022-10-15T03:27:01;15.00;99.90
21037;DHT22;10677;50.942;4.028;2022-10-15T03:29:26;15.10;99.90
21037;DHT22;10677;50.942;4.028;2022-10-15T03:31:52;15.00;99.90
21037;DHT22;10677;50.942;4.028;2022-10-15T03:34:18;15.00;99.90
21037;DHT22;10677;50.942;4.028;2022-10-15T03:36:43;15.10;99.90
21037;DHT22;10677;50.942;4.028;2022-10-15T03:39:11;15.00;99.90
21037;DHT22;10677;50.942;4.028;2022-10-15T03:41:37;15.10;99.90
21037;DHT22;10677;50.942;4.028;2022-10-15T03:44:05;15.00;99.90
21037;DHT22;10677;50.942;4.028;2022-10-15T03:46:31;15.00;99.90
21037;DHT22;10677;50.942;4.028;2022-10-15T03:48:57;15.00;99.90
21037;DHT22;10677;50.942;4.028;2022-10-15T03:51:22;15.00;99.90
21037;DHT22;10677;50.942;4.028;2022-10-15T03:53:48;15.00;99.90
21037;DHT22;10677;50.942;4.028;2022-10-15T03:56:14;15.10;99.90
21037;DHT22;10677;50.942;4.028;2022-10-15T03:58:40;15.10;99.90
21037;DHT22;10677;50.942;4.028;2022-10-15T04:01:16;15.00;99.90
21037;DHT22;10677;50.942;4.028;2022-10-15T04:03:42;15.00;99.90
21037;DHT22;10677;50.942;4.028;2022-10-15T04:06:08;14.90;99.90
21037;DHT22;10677;50.942;4.028;2022-10-15T04:08:34;15.00;99.90
21037;DHT22;10677;50.942;4.028;2022-10-15T04:10:59;15.00;99.90
21037;DHT22;10677;50.942;4.028;2022-10-15T04:13:26;15.00;99.90
21037;DHT22;10677;50.942;4.028;2022-10-15T04:15:52;15.10;99.90
21037;DHT22;10677;50.942;4.028;2022-10-15T04:18:17;15.10;99.90
21037;DHT22;10677;50.942;4.028;2022-10-15T04:20:49;15.10;99.90
21037;DHT22;10677;50.942;4.028;2022-10-15T04:23:16;15.10;99.90
21037;DHT22;10677;50.942;4.028;2022-10-15T04:25:41;15.00;99.90
21037;DHT22;10677;50.942;4.028;2022-10-15T04:28:07;15.00;99.90
21037;DHT22;10677;50.942;4.028;2022-10-15T04:30:33;15.00;99.90
21037;DHT22;10677;50.942;4.028;2022-10-15T04:32:59;15.00;99.90
21037;DHT22;10677;50.942;4.028;2022-10-15T04:35:24;15.00;99.90
21037;DHT22;10677;50.942;4.028;2022-10-15T04:37:50;14.90;99.90
21037;DHT22;10677;50.942;4.028;2022-10-15T04:40:16;14.90;99.90
21037;DHT22;10677;50.942;4.028;2022-10-15T04:42:42;14.90;99.90
21037;DHT22;10677;50.942;4.028;2022-10-15T04:45:08;15.00;99.90
21037;DHT22;10677;50.942;4.028;2022-10-15T04:47:34;15.00;99.90
21037;DHT22;10677;50.942;4.028;2022-10-15T04:49:59;15.10;99.90
21037;DHT22;10677;50.942;4.028;2022-10-15T04:52:25;15.10;99.90
21037;DHT22;10677;50.942;4.028;2022-10-15T04:54:50;15.10;99.90
21037;DHT22;10677;50.942;4.028;2022-10-15T04:57:16;15.10;99.90
21037;DHT22;10677;50.942;4.028;2022-10-15T04:59:42;15.00;99.90
21037;DHT22;10677;50.942;4.028;2022-10-15T05:02:09;15.20;99.90
21037;DHT22;10677;50.942;4.028;2022-10-15T05:04:35;15.20;99.90
21037;DHT22;10677;50.942;4.028;2022-10-15T05:07:00;15.30;99.90
21037;DHT22;10677;50.942;4.028;2022-10-15T05:09:26;15.30;99.90
21037;DHT22;10677;50.942;4.028;2022-10-15T05:11:52;15.30;99.90
21037;DHT22;10677;50.942;4.028;2022-10-15T05:14:19;15.20;99.90
21037;DHT22;10677;50.942;4.028;2022-10-15T05:16:45;15.20;99.90
21037;DHT22;10677;50.942;4.028;2022-10-15T05:19:11;15.20;99.90
21037;DHT22;10677;50.942;4.028;2022-10-15T05:21:38;15.20;99.90
21037;DHT22;10677;50.942;4.028;2022-10-15T05:24:04;15.20;99.90
21037;DHT22;10677;50.942;4.028;2022-10-15T05:26:30;15.10;99.90
21037;DHT22;10677;50.942;4.028;2022-10-15T05:28:58;15.10;99.90
21037;DHT22;10677;50.942;4.028;2022-10-15T05:31:26;15.10;99.90
21037;DHT22;10677;50.942;4.028;2022-10-15T05:33:52;15.10;99.90
21037;DHT22;10677;50.942;4.028;2022-10-15T05:36:27;15.00;99.90
21037;DHT22;10677;50.942;4.028;2022-10-15T05:39:03;14.90;99.90
21037;DHT22;10677;50.942;4.028;2022-10-15T05:41:29;14.80;99.90
21037;DHT22;10677;50.942;4.028;2022-10-15T05:43:56;14.80;99.90
21037;DHT22;10677;50.942;4.028;2022-10-15T05:46:22;14.80;99.90
21037;DHT22;10677;50.942;4.028;2022-10-15T05:48:50;14.70;99.90
21037;DHT22;10677;50.942;4.028;2022-10-15T05:51:16;14.70;99.90
21037;DHT22;10677;50.942;4.028;2022-10-15T05:53:42;14.80;99.90
21037;DHT22;10677;50.942;4.028;2022-10-15T05:56:08;14.80;99.90
21037;DHT22;10677;50.942;4.028;2022-10-15T05:58:35;14.80;99.90
21037;DHT22;10677;50.942;4.028;2022-10-15T06:01:03;14.90;99.90
21037;DHT22;10677;50.942;4.028;2022-10-15T06:03:29;14.90;99.90
21037;DHT22;10677;50.942;4.028;2022-10-15T06:05:54;14.90;99.90
21037;DHT22;10677;50.942;4.028;2022-10-15T06:08:21;14.90;99.90
21037;DHT22;10677;50.942;4.028;2022-10-15T06:10:47;14.90;99.90
21037;DHT22;10677;50.942;4.028;2022-10-15T06:13:13;14.90;99.90
21037;DHT22;10677;50.942;4.028;2022-10-15T06:15:44;14.90;99.90
21037;DHT22;10677;50.942;4.028;2022-10-15T06:18:10;14.90;99.90
21037;DHT22;10677;50.942;4.028;2022-10-15T06:20:37;14.90;99.90
21037;DHT22;10677;50.942;4.028;2022-10-15T06:23:04;14.90;99.90
21037;DHT22;10677;50.942;4.028;2022-10-15T06:25:30;15.00;99.90
21037;DHT22;10677;50.942;4.028;2022-10-15T06:28:03;15.00;99.90
21037;DHT22;10677;50.942;4.028;2022-10-15T06:30:29;15.10;99.90
21037;DHT22;10677;50.942;4.028;2022-10-15T06:32:55;15.10;99.90
21037;DHT22;10677;50.942;4.028;2022-10-15T06:35:22;15.20;99.90
21037;DHT22;10677;50.942;4.028;2022-10-15T06:37:48;15.20;99.90
21037;DHT22;10677;50.942;4.028;2022-10-15T06:40:14;15.20;99.90
21037;DHT22;10677;50.942;4.028;2022-10-15T06:42:40;15.20;99.90
21037;DHT22;10677;50.942;4.028;2022-10-15T06:45:06;15.30;99.90
21037;DHT22;10677;50.942;4.028;2022-10-15T06:47:33;15.20;99.90
21037;DHT22;10677;50.942;4.028;2022-10-15T06:49:58;15.20;99.90
21037;DHT22;10677;50.942;4.028;2022-10-15T06:52:24;15.10;99.90
21037;DHT22;10677;50.942;4.028;2022-10-15T06:54:51;15.20;99.90
21037;DHT22;10677;50.942;4.028;2022-10-15T06:57:16;15.20;99.90
21037;DHT22;10677;50.942;4.028;2022-10-15T06:59:42;15.20;99.90
21037;DHT22;10677;50.942;4.028;2022-10-15T07:02:09;15.30;99.90
21037;DHT22;10677;50.942;4.028;2022-10-15T07:04:35;15.30;99.90
21037;DHT22;10677;50.942;4.028;2022-10-15T07:07:00;15.40;99.90
21037;DHT22;10677;50.942;4.028;2022-10-15T07:09:26;15.30;99.90
21037;DHT22;10677;50.942;4.028;2022-10-15T07:11:52;15.30;99.90
21037;DHT22;10677;50.942;4.028;2022-10-15T07:14:17;15.30;99.90
21037;DHT22;10677;50.942;4.028;2022-10-15T07:16:43;15.40;99.90
21037;DHT22;10677;50.942;4.028;2022-10-15T07:19:09;15.50;99.90
21037;DHT22;10677;50.942;4.028;2022-10-15T07:21:34;15.40;99.90
21037;DHT22;10677;50.942;4.028;2022-10-15T07:24:00;15.40;99.90
21037;DHT22;10677;50.942;4.028;2022-10-15T07:26:26;15.40;99.90
21037;DHT22;10677;50.942;4.028;2022-10-15T07:28:55;15.40;99.90
21037;DHT22;10677;50.942;4.028;2022-10-15T07:31:21;15.30;99.90
21037;DHT22;10677;50.942;4.028;2022-10-15T07:33:47;15.40;99.90
21037;DHT22;10677;50.942;4.028;2022-10-15T07:36:13;15.40;99.90
21037;DHT22;10677;50.942;4.028;2022-10-15T07:38:38;15.30;99.90
21037;DHT22;10677;50.942;4.028;2022-10-15T07:41:09;15.30;99.90
21037;DHT22;10677;50.942;4.028;2022-10-15T07:43:35;15.30;99.90
21037;DHT22;10677;50.942;4.028;2022-10-15T07:46:02;15.40;99.90
21037;DHT22;10677;50.942;4.028;2022-10-15T07:48:28;15.40;99.90
21037;DHT22;10677;50.942;4.028;2022-10-15T07:51:05;15.50;99.90
21037;DHT22;10677;50.942;4.028;2022-10-15T07:53:32;15.60;99.90
21037;DHT22;10677;50.942;4.028;2022-10-15T07:55:59;15.60;99.90
21037;DHT22;10677;50.942;4.028;2022-10-15T07:58:26;15.50;99.90
21037;DHT22;10677;50.942;4.028;2022-10-15T08:00:51;15.50;99.90
21037;DHT22;10677;50.942;4.028;2022-10-15T08:03:17;15.60;99.90
21037;DHT22;10677;50.942;4.028;2022-10-15T08:05:43;15.50;99.90
21037;DHT22;10677;50.942;4.028;2022-10-15T08:08:08;15.50;99.90
21037;DHT22;10677;50.942;4.028;2022-10-15T08:10:35;15.60;99.90
21037;DHT22;10677;50.942;4.028;2022-10-15T08:13:00;15.60;99.90
21037;DHT22;10677;50.942;4.028;2022-10-15T08:15:26;15.60;99.90
21037;DHT22;10677;50.942;4.028;2022-10-15T08:17:51;15.70;99.90
21037;DHT22;10677;50.942;4.028;2022-10-15T08:20:17;15.70;99.90
21037;DHT22;10677;50.942;4.028;2022-10-15T08:22:43;15.70;99.90
21037;DHT22;10677;50.942;4.028;2022-10-15T08:25:08;15.70;99.90
21037;DHT22;10677;50.942;4.028;2022-10-15T08:27:34;15.80;99.90
21037;DHT22;10677;50.942;4.028;2022-10-15T08:30:00;15.90;99.90
21037;DHT22;10677;50.942;4.028;2022-10-15T08:32:26;15.90;99.90
21037;DHT22;10677;50.942;4.028;2022-10-15T08:34:51;15.90;99.90
21037;DHT22;10677;50.942;4.028;2022-10-15T08:37:17;15.90;99.90
21037;DHT22;10677;50.942;4.028;2022-10-15T08:39:43;15.90;99.90
21037;DHT22;10677;50.942;4.028;2022-10-15T08:42:21;16.00;99.90
21037;DHT22;10677;50.942;4.028;2022-10-15T08:44:58;16.10;99.90
21037;DHT22;10677;50.942;4.028;2022-10-15T08:47:33;16.30;99.90
21037;DHT22;10677;50.942;4.028;2022-10-15T08:50:11;16.40;99.90
21037;DHT22;10677;50.942;4.028;2022-10-15T08:52:46;16.50;99.90
21037;DHT22;10677;50.942;4.028;2022-10-15T08:55:15;16.50;99.90
21037;DHT22;10677;50.942;4.028;2022-10-15T08:57:56;16.50;99.90
21037;DHT22;10677;50.942;4.028;2022-10-15T09:00:34;16.50;99.90
21037;DHT22;10677;50.942;4.028;2022-10-15T09:11:35;16.60;99.90
21037;DHT22;10677;50.942;4.028;2022-10-15T09:14:04;16.60;99.90
21037;DHT22;10677;50.942;4.028;2022-10-15T09:16:36;16.70;99.90
21037;DHT22;10677;50.942;4.028;2022-10-15T09:19:09;16.80;99.90
21037;DHT22;10677;50.942;4.028;2022-10-15T09:21:37;16.90;99.90
21037;DHT22;10677;50.942;4.028;2022-10-15T09:24:03;17.00;99.90
21037;DHT22;10677;50.942;4.028;2022-10-15T09:32:05;17.30;99.90
21037;DHT22;10677;50.942;4.028;2022-10-15T09:40:07;17.10;99.90
21037;DHT22;10677;50.942;4.028;2022-10-15T09:42:38;17.20;99.90
21037;DHT22;10677;50.942;4.028;2022-10-15T09:45:10;17.30;99.90
21037;DHT22;10677;50.942;4.028;2022-10-15T09:47:38;17.30;99.90
21037;DHT22;10677;50.942;4.028;2022-10-15T09:50:06;17.40;99.90
21037;DHT22;10677;50.942;4.028;2022-10-15T09:57:53;17.60;99.90
21037;DHT22;10677;50.942;4.028;2022-10-15T10:00:20;17.70;99.90
21037;DHT22;10677;50.942;4.028;2022-10-15T10:03:04;18.00;99.90
21037;DHT22;10677;50.942;4.028;2022-10-15T10:05:32;18.10;99.90
21037;DHT22;10677;50.942;4.028;2022-10-15T10:11:01;18.20;99.90
21037;DHT22;10677;50.942;4.028;2022-10-15T10:13:30;18.10;99.90
21037;DHT22;10677;50.942;4.028;2022-10-15T10:16:08;18.10;99.90
21037;DHT22;10677;50.942;4.028;2022-10-15T10:18:34;18.10;99.90
21037;DHT22;10677;50.942;4.028;2022-10-15T10:21:18;18.30;99.90
21037;DHT22;10677;50.942;4.028;2022-10-15T10:23:45;18.50;99.90
21037;DHT22;10677;50.942;4.028;2022-10-15T10:26:11;18.60;99.90
21037;DHT22;10677;50.942;4.028;2022-10-15T10:28:50;18.70;99.90
21037;DHT22;10677;50.942;4.028;2022-10-15T10:31:17;18.80;99.90
21037;DHT22;10677;50.942;4.028;2022-10-15T10:33:51;18.80;99.90
21037;DHT22;10677;50.942;4.028;2022-10-15T10:36:24;18.70;99.90
21037;DHT22;10677;50.942;4.028;2022-10-15T10:39:26;18.70;99.90
21037;DHT22;10677;50.942;4.028;2022-10-15T10:42:05;18.70;99.90
21037;DHT22;10677;50.942;4.028;2022-10-15T10:44:39;18.60;99.90
21037;DHT22;10677;50.942;4.028;2022-10-15T10:49:49;18.50;99.90
21037;DHT22;10677;50.942;4.028;2022-10-15T10:52:23;18.40;99.90
21037;DHT22;10677;50.942;4.028;2022-10-15T10:57:30;18.60;99.90
21037;DHT22;10677;50.942;4.028;2022-10-15T10:59:56;18.70;99.90
21037;DHT22;10677;50.942;4.028;2022-10-15T11:02:22;18.80;99.90
21037;DHT22;10677;50.942;4.028;2022-10-15T11:04:48;18.90;99.90
21037;DHT22;10677;50.942;4.028;2022-10-15T11:29:08;19.40;99.90
21037;DHT22;10677;50.942;4.028;2022-10-15T11:34:59;19.80;99.90
21037;DHT22;10677;50.942;4.028;2022-10-15T11:43:13;19.70;99.90
21037;DHT22;10677;50.942;4.028;2022-10-15T11:46:02;19.80;99.90
21037;DHT22;10677;50.942;4.028;2022-10-15T11:54:38;19.60;99.90
21037;DHT22;10677;50.942;4.028;2022-10-15T11:57:08;19.20;99.90
21037;DHT22;10677;50.942;4.028;2022-10-15T12:02:16;18.90;99.90
21037;DHT22;10677;50.942;4.028;2022-10-15T12:04:49;18.80;99.90
21037;DHT22;10677;50.942;4.028;2022-10-15T12:07:20;18.80;99.90
21037;DHT22;10677;50.942;4.028;2022-10-15T12:09:53;18.80;99.90
21037;DHT22;10677;50.942;4.028;2022-10-15T12:18:23;18.80;99.90
21037;DHT22;10677;50.942;4.028;2022-10-15T12:20:51;18.90;99.90
21037;DHT22;10677;50.942;4.028;2022-10-15T12:23:26;18.80;99.90
21037;DHT22;10677;50.942;4.028;2022-10-15T12:26:32;18.50;99.90
21037;DHT22;10677;50.942;4.028;2022-10-15T12:29:02;18.50;99.90
21037;DHT22;10677;50.942;4.028;2022-10-15T12:31:48;18.70;99.90
21037;DHT22;10677;50.942;4.028;2022-10-15T12:34:38;18.90;99.90
21037;DHT22;10677;50.942;4.028;2022-10-15T12:37:16;19.10;99.90
21037;DHT22;10677;50.942;4.028;2022-10-15T12:39:43;19.00;99.90
21037;DHT22;10677;50.942;4.028;2022-10-15T12:42:38;19.20;99.90
21037;DHT22;10677;50.942;4.028;2022-10-15T12:45:19;19.40;99.90
21037;DHT22;10677;50.942;4.028;2022-10-15T12:55:32;19.60;99.90
21037;DHT22;10677;50.942;4.028;2022-10-15T13:00:45;19.50;99.90
21037;DHT22;10677;50.942;4.028;2022-10-15T13:03:44;19.40;99.90
21037;DHT22;10677;50.942;4.028;2022-10-15T13:08:47;19.70;99.90
21037;DHT22;10677;50.942;4.028;2022-10-15T13:11:23;19.70;99.90
21037;DHT22;10677;50.942;4.028;2022-10-15T13:13:54;19.90;99.90
21037;DHT22;10677;50.942;4.028;2022-10-15T13:16:21;19.70;99.90
21037;DHT22;10677;50.942;4.028;2022-10-15T13:18:50;19.70;99.90
21037;DHT22;10677;50.942;4.028;2022-10-15T13:21:16;19.70;99.90
21037;DHT22;10677;50.942;4.028;2022-10-15T13:23:46;19.70;99.90
21037;DHT22;10677;50.942;4.028;2022-10-15T13:28:46;19.90;99.90
21037;DHT22;10677;50.942;4.028;2022-10-15T13:31:31;20.00;99.90
21037;DHT22;10677;50.942;4.028;2022-10-15T13:34:07;20.20;99.90
21037;DHT22;10677;50.942;4.028;2022-10-15T13:36:35;20.20;99.90
21037;DHT22;10677;50.942;4.028;2022-10-15T13:39:06;20.30;99.90
21037;DHT22;10677;50.942;4.028;2022-10-15T13:41:36;20.30;99.90
21037;DHT22;10677;50.942;4.028;2022-10-15T13:44:02;20.30;99.90
21037;DHT22;10677;50.942;4.028;2022-10-15T13:46:35;20.40;99.90
21037;DHT22;10677;50.942;4.028;2022-10-15T13:49:10;20.50;99.90
21037;DHT22;10677;50.942;4.028;2022-10-15T13:51:39;20.60;99.90
21037;DHT22;10677;50.942;4.028;2022-10-15T13:54:09;20.60;99.90
21037;DHT22;10677;50.942;4.028;2022-10-15T13:56:36;20.70;99.90
21037;DHT22;10677;50.942;4.028;2022-10-15T13:59:11;20.60;99.90
21037;DHT22;10677;50.942;4.028;2022-10-15T14:01:45;20.60;99.90
21037;DHT22;10677;50.942;4.028;2022-10-15T14:04:16;20.50;99.90
21037;DHT22;10677;50.942;4.028;2022-10-15T14:06:58;20.60;99.90
21037;DHT22;10677;50.942;4.028;2022-10-15T14:09:32;20.60;99.90
21037;DHT22;10677;50.942;4.028;2022-10-15T14:11:59;21.00;99.90
21037;DHT22;10677;50.942;4.028;2022-10-15T14:16:59;20.70;99.90
21037;DHT22;10677;50.942;4.028;2022-10-15T14:19:26;20.30;99.90
21037;DHT22;10677;50.942;4.028;2022-10-15T14:21:56;20.30;99.90
21037;DHT22;10677;50.942;4.028;2022-10-15T14:24:36;21.00;99.90
21037;DHT22;10677;50.942;4.028;2022-10-15T14:27:14;22.10;99.90
21037;DHT22;10677;50.942;4.028;2022-10-15T14:29:45;21.70;99.90
21037;DHT22;10677;50.942;4.028;2022-10-15T14:34:51;21.40;99.90
21037;DHT22;10677;50.942;4.028;2022-10-15T14:37:46;21.00;99.90
21037;DHT22;10677;50.942;4.028;2022-10-15T14:40:15;21.00;99.90
21037;DHT22;10677;50.942;4.028;2022-10-15T14:43:04;20.60;99.90
21037;DHT22;10677;50.942;4.028;2022-10-15T14:45:40;20.70;99.90
21037;DHT22;10677;50.942;4.028;2022-10-15T14:48:15;20.50;99.90
21037;DHT22;10677;50.942;4.028;2022-10-15T14:50:43;20.40;99.90
21037;DHT22;10677;50.942;4.028;2022-10-15T14:53:16;20.20;99.90
21037;DHT22;10677;50.942;4.028;2022-10-15T14:55:46;21.30;99.90
21037;DHT22;10677;50.942;4.028;2022-10-15T14:58:18;22.40;99.90
21037;DHT22;10677;50.942;4.028;2022-10-15T15:00:54;22.60;99.90
21037;DHT22;10677;50.942;4.028;2022-10-15T15:03:25;22.70;99.90
21037;DHT22;10677;50.942;4.028;2022-10-15T15:05:53;22.90;99.90
21037;DHT22;10677;50.942;4.028;2022-10-15T15:08:20;22.60;99.90
21037;DHT22;10677;50.942;4.028;2022-10-15T15:10:47;22.90;99.90
21037;DHT22;10677;50.942;4.028;2022-10-15T15:13:18;23.30;99.90
21037;DHT22;10677;50.942;4.028;2022-10-15T15:15:44;23.80;99.90
21037;DHT22;10677;50.942;4.028;2022-10-15T15:18:10;23.10;99.90
21037;DHT22;10677;50.942;4.028;2022-10-15T15:20:36;22.20;99.90
21037;DHT22;10677;50.942;4.028;2022-10-15T15:23:02;21.30;99.90
21037;DHT22;10677;50.942;4.028;2022-10-15T15:25:30;20.90;99.90
21037;DHT22;10677;50.942;4.028;2022-10-15T15:27:58;20.60;99.90
21037;DHT22;10677;50.942;4.028;2022-10-15T15:30:26;20.30;99.90
21037;DHT22;10677;50.942;4.028;2022-10-15T15:32:52;20.20;99.90
21037;DHT22;10677;50.942;4.028;2022-10-15T15:35:35;20.50;99.90
21037;DHT22;10677;50.942;4.028;2022-10-15T15:38:01;20.70;99.90
21037;DHT22;10677;50.942;4.028;2022-10-15T15:40:30;20.70;99.90
21037;DHT22;10677;50.942;4.028;2022-10-15T15:42:56;20.60;99.90
21037;DHT22;10677;50.942;4.028;2022-10-15T15:45:24;21.20;99.90
21037;DHT22;10677;50.942;4.028;2022-10-15T15:47:50;21.20;99.90
21037;DHT22;10677;50.942;4.028;2022-10-15T15:50:17;21.30;99.90
21037;DHT22;10677;50.942;4.028;2022-10-15T15:52:43;21.30;99.90
21037;DHT22;10677;50.942;4.028;2022-10-15T15:55:10;21.40;99.90
21037;DHT22;10677;50.942;4.028;2022-10-15T15:57:36;21.40;99.90
21037;DHT22;10677;50.942;4.028;2022-10-15T16:00:03;21.00;99.90
21037;DHT22;10677;50.942;4.028;2022-10-15T16:02:28;20.80;99.90
21037;DHT22;10677;50.942;4.028;2022-10-15T16:04:54;20.60;99.90
21037;DHT22;10677;50.942;4.028;2022-10-15T16:07:19;20.40;99.90
21037;DHT22;10677;50.942;4.028;2022-10-15T16:09:45;20.20;99.90
21037;DHT22;10677;50.942;4.028;2022-10-15T16:12:10;20.10;99.90
21037;DHT22;10677;50.942;4.028;2022-10-15T16:14:36;20.00;99.90
21037;DHT22;10677;50.942;4.028;2022-10-15T16:17:02;19.90;99.90
21037;DHT22;10677;50.942;4.028;2022-10-15T16:19:28;19.80;99.90
21037;DHT22;10677;50.942;4.028;2022-10-15T16:21:53;19.60;99.90
21037;DHT22;10677;50.942;4.028;2022-10-15T16:24:19;19.30;99.90
21037;DHT22;10677;50.942;4.028;2022-10-15T16:26:44;19.20;99.90
21037;DHT22;10677;50.942;4.028;2022-10-15T16:29:10;19.00;99.90
21037;DHT22;10677;50.942;4.028;2022-10-15T16:31:36;18.80;99.90
21037;DHT22;10677;50.942;4.028;2022-10-15T16:34:03;18.60;99.90
21037;DHT22;10677;50.942;4.028;2022-10-15T16:36:29;18.50;99.90
21037;DHT22;10677;50.942;4.028;2022-10-15T16:38:55;18.40;99.90
21037;DHT22;10677;50.942;4.028;2022-10-15T16:41:21;18.30;99.90
21037;DHT22;10677;50.942;4.028;2022-10-15T16:43:47;18.10;99.90
21037;DHT22;10677;50.942;4.028;2022-10-15T16:46:13;18.00;99.90
21037;DHT22;10677;50.942;4.028;2022-10-15T16:48:40;18.00;99.90
21037;DHT22;10677;50.942;4.028;2022-10-15T16:51:07;17.80;99.90
21037;DHT22;10677;50.942;4.028;2022-10-15T16:53:35;17.80;99.90
21037;DHT22;10677;50.942;4.028;2022-10-15T16:56:03;17.70;99.90
21037;DHT22;10677;50.942;4.028;2022-10-15T16:58:30;17.70;99.90
21037;DHT22;10677;50.942;4.028;2022-10-15T17:01:03;17.60;99.90
21037;DHT22;10677;50.942;4.028;2022-10-15T17:03:35;17.60;99.90
21037;DHT22;10677;50.942;4.028;2022-10-15T17:06:05;17.50;99.90
21037;DHT22;10677;50.942;4.028;2022-10-15T17:08:43;17.50;99.90
21037;DHT22;10677;50.942;4.028;2022-10-15T17:11:16;17.40;99.90
21037;DHT22;10677;50.942;4.028;2022-10-15T17:13:42;17.40;99.90
21037;DHT22;10677;50.942;4.028;2022-10-15T17:16:11;17.40;99.90
21037;DHT22;10677;50.942;4.028;2022-10-15T17:18:38;17.40;99.90
21037;DHT22;10677;50.942;4.028;2022-10-15T17:21:06;17.30;99.90
21037;DHT22;10677;50.942;4.028;2022-10-15T17:23:32;17.30;99.90
21037;DHT22;10677;50.942;4.028;2022-10-15T17:26:02;17.30;99.90
21037;DHT22;10677;50.942;4.028;2022-10-15T17:28:28;17.20;99.90
21037;DHT22;10677;50.942;4.028;2022-10-15T17:30:53;17.20;99.90
21037;DHT22;10677;50.942;4.028;2022-10-15T17:33:19;17.10;99.90
21037;DHT22;10677;50.942;4.028;2022-10-15T17:35:44;17.10;99.90
21037;DHT22;10677;50.942;4.028;2022-10-15T17:38:10;17.10;99.90
21037;DHT22;10677;50.942;4.028;2022-10-15T17:40:38;17.10;99.90